createdAt,value
2017-07-29T00:00:51.800Z,99.99
2017-07-29T00:01:52.098Z,99.99
2017-07-29T00:02:52.101Z,99.99
2017-07-29T00:03:52.095Z,99.99
2017-07-29T00:04:52.103Z,99.99
2017-07-29T00:05:52.089Z,99.99
2017-07-29T00:06:52.090Z,99.99
2017-07-29T00:07:52.091Z,99.99
2017-07-29T00:08:52.076Z,99.99
2017-07-29T00:09:52.067Z,99.99
2017-07-29T00:10:52.060Z,99.99
2017-07-29T00:11:52.047Z,99.99
2017-07-29T00:12:52.053Z,99.99
2017-07-29T00:13:52.034Z,99.99
2017-07-29T00:14:52.048Z,99.99
2017-07-29T00:15:52.040Z,99.99
2017-07-29T00:16:52.041Z,99.99
2017-07-29T00:17:52.032Z,99.99
2017-07-29T00:18:52.027Z,99.99
2017-07-29T00:19:52.017Z,99.99
2017-07-29T00:20:52.007Z,99.99
2017-07-29T00:21:52.011Z,99.99
2017-07-29T00:22:51.993Z,99.99
2017-07-29T00:23:52.003Z,99.99
2017-07-29T00:24:51.985Z,99.99
2017-07-29T00:25:51.989Z,99.99
2017-07-29T00:26:51.988Z,99.99
2017-07-29T00:27:51.988Z,99.99
2017-07-29T00:28:51.667Z,99.99
2017-07-29T00:29:51.966Z,99.99
2017-07-29T00:30:51.963Z,99.99
2017-07-29T00:31:51.962Z,99.99
2017-07-29T00:32:51.958Z,99.99
2017-07-29T00:33:51.961Z,99.99
2017-07-29T00:34:51.947Z,99.99
2017-07-29T00:35:51.952Z,99.99
2017-07-29T00:36:51.942Z,99.99
2017-07-29T00:37:51.940Z,99.99
2017-07-29T00:38:51.919Z,99.99
2017-07-29T00:39:51.923Z,99.99
2017-07-29T00:40:51.921Z,99.99
2017-07-29T00:41:51.921Z,99.99
2017-07-29T00:42:51.917Z,99.99
2017-07-29T00:43:51.896Z,99.99
2017-07-29T00:44:51.904Z,99.99
2017-07-29T00:45:51.898Z,99.99
2017-07-29T00:46:51.897Z,99.99
2017-07-29T00:47:51.888Z,99.99
2017-07-29T00:48:51.886Z,99.99
2017-07-29T00:49:51.878Z,99.99
2017-07-29T00:50:51.876Z,99.99
2017-07-29T00:51:51.562Z,99.99
2017-07-29T00:52:51.548Z,99.99
2017-07-29T00:53:51.848Z,99.99
2017-07-29T00:54:51.859Z,99.99
2017-07-29T00:55:51.846Z,99.99
2017-07-29T00:56:51.852Z,99.99
2017-07-29T00:57:51.843Z,99.99
2017-07-29T00:58:51.852Z,99.99
2017-07-29T00:59:51.828Z,99.99
2017-07-29T01:00:51.824Z,99.99
2017-07-29T01:01:51.816Z,99.99
2017-07-29T01:02:51.826Z,99.99
2017-07-29T01:03:51.812Z,99.99
2017-07-29T01:04:51.494Z,99.99
2017-07-29T01:05:51.794Z,99.99
2017-07-29T01:06:51.798Z,99.99
2017-07-29T01:07:51.794Z,99.99
2017-07-29T01:08:51.787Z,99.99
2017-07-29T01:09:51.794Z,99.99
2017-07-29T01:10:51.786Z,99.99
2017-07-29T01:11:51.476Z,99.99
2017-07-29T01:12:51.761Z,99.99
2017-07-29T01:13:51.768Z,99.99
2017-07-29T01:14:51.768Z,99.99
2017-07-29T01:15:51.760Z,99.99
2017-07-29T01:16:51.754Z,99.99
2017-07-29T01:17:51.755Z,99.99
2017-07-29T01:18:51.748Z,99.99
2017-07-29T01:19:51.743Z,99.99
2017-07-29T01:20:51.727Z,99.99
2017-07-29T01:21:51.722Z,99.99
2017-07-29T01:22:51.721Z,99.99
2017-07-29T01:23:51.722Z,99.99
2017-07-29T01:24:51.716Z,99.99
2017-07-29T01:25:51.719Z,99.99
2017-07-29T01:26:51.712Z,99.99
2017-07-29T01:27:51.703Z,99.99
2017-07-29T01:28:51.386Z,99.99
2017-07-29T01:29:51.692Z,99.99
2017-07-29T01:30:51.692Z,99.99
2017-07-29T01:31:51.691Z,99.99
2017-07-29T01:32:51.679Z,99.99
2017-07-29T01:33:51.680Z,99.99
2017-07-29T01:34:51.661Z,99.99
2017-07-29T01:35:51.355Z,99.99
2017-07-29T01:36:51.663Z,99.99
2017-07-29T01:37:51.659Z,99.99
2017-07-29T01:38:51.650Z,99.99
2017-07-29T01:39:51.656Z,99.99
2017-07-29T01:40:51.645Z,99.99
2017-07-29T01:41:51.643Z,99.99
2017-07-29T01:42:51.641Z,99.99
2017-07-29T01:43:51.630Z,99.99
2017-07-29T01:44:51.649Z,99.99
2017-07-29T01:45:51.618Z,99.99
2017-07-29T01:46:51.612Z,99.99
2017-07-29T01:47:51.308Z,99.99
2017-07-29T01:48:51.603Z,99.99
2017-07-29T01:49:51.610Z,99.99
2017-07-29T01:50:51.593Z,99.99
2017-07-29T01:51:51.586Z,99.99
2017-07-29T01:52:51.597Z,99.99
2017-07-29T01:53:51.586Z,99.99
2017-07-29T01:54:51.582Z,99.99
2017-07-29T01:55:51.579Z,99.99
2017-07-29T01:56:51.578Z,99.99
2017-07-29T01:57:51.563Z,99.99
2017-07-29T01:58:51.568Z,99.99
2017-07-29T01:59:51.560Z,99.99
2017-07-29T02:00:51.260Z,99.99
2017-07-29T02:01:51.561Z,99.99
2017-07-29T02:02:51.554Z,99.99
2017-07-29T02:03:51.546Z,99.99
2017-07-29T02:04:51.545Z,99.99
2017-07-29T02:05:51.523Z,99.99
2017-07-29T02:06:51.542Z,99.99
2017-07-29T02:07:51.526Z,99.99
2017-07-29T02:08:51.522Z,99.99
2017-07-29T02:09:51.507Z,99.99
2017-07-29T02:10:51.529Z,99.99
2017-07-29T02:11:51.514Z,99.99
2017-07-29T02:12:51.504Z,99.99
2017-07-29T02:13:51.500Z,99.99
2017-07-29T02:14:51.490Z,99.99
2017-07-29T02:15:51.492Z,99.99
2017-07-29T02:16:51.487Z,99.99
2017-07-29T02:17:51.480Z,99.99
2017-07-29T02:18:51.487Z,99.99
2017-07-29T02:19:51.479Z,99.99
2017-07-29T02:20:51.477Z,99.99
2017-07-29T02:21:51.455Z,99.99
2017-07-29T02:22:51.458Z,99.99
2017-07-29T02:23:51.464Z,99.99
2017-07-29T02:24:51.448Z,99.99
2017-07-29T02:25:51.452Z,99.99
2017-07-29T02:26:51.435Z,99.99
2017-07-29T02:27:51.440Z,99.99
2017-07-29T02:28:51.432Z,99.99
2017-07-29T02:29:51.435Z,99.99
2017-07-29T02:30:51.416Z,99.99
2017-07-29T02:31:51.432Z,99.99
2017-07-29T02:32:51.422Z,99.99
2017-07-29T02:33:51.419Z,99.99
2017-07-29T02:34:51.417Z,99.99
2017-07-29T02:35:51.407Z,99.99
2017-07-29T02:36:51.086Z,99.99
2017-07-29T02:37:51.397Z,99.99
2017-07-29T02:38:51.397Z,99.99
2017-07-29T02:39:51.390Z,99.99
2017-07-29T02:40:51.386Z,99.99
2017-07-29T02:41:51.377Z,99.99
2017-07-29T02:42:51.375Z,99.99
2017-07-29T02:43:51.384Z,99.99
2017-07-29T02:44:51.367Z,99.99
2017-07-29T02:45:51.375Z,99.99
2017-07-29T02:46:51.046Z,99.99
2017-07-29T02:47:51.357Z,99.99
2017-07-29T02:48:51.353Z,99.99
2017-07-29T02:49:51.354Z,99.99
2017-07-29T02:50:51.335Z,99.99
2017-07-29T02:51:51.347Z,99.99
2017-07-29T02:52:51.334Z,99.99
2017-07-29T02:53:51.332Z,99.99
2017-07-29T02:54:51.318Z,99.99
2017-07-29T02:55:51.319Z,99.99
2017-07-29T02:56:51.318Z,99.99
2017-07-29T02:57:51.316Z,99.99
2017-07-29T02:58:51.309Z,99.99
2017-07-29T02:59:51.305Z,99.99
2017-07-29T03:00:51.310Z,99.99
2017-07-29T03:01:51.301Z,99.99
2017-07-29T03:02:51.297Z,99.99
2017-07-29T03:03:51.289Z,99.99
2017-07-29T03:04:50.972Z,99.99
2017-07-29T03:05:51.285Z,99.99
2017-07-29T03:06:51.278Z,99.99
2017-07-29T03:07:51.279Z,99.99
2017-07-29T03:08:51.278Z,99.99
2017-07-29T03:09:50.966Z,99.99
2017-07-29T03:10:51.266Z,99.99
2017-07-29T03:11:51.263Z,99.99
2017-07-29T03:12:51.257Z,99.99
2017-07-29T03:13:51.258Z,99.99
2017-07-29T03:14:51.246Z,99.99
2017-07-29T03:15:51.241Z,99.99
2017-07-29T03:16:51.244Z,99.99
2017-07-29T03:17:51.238Z,99.99
2017-07-29T03:18:51.228Z,99.99
2017-07-29T03:19:51.229Z,99.99
2017-07-29T03:20:51.228Z,99.99
2017-07-29T03:21:51.209Z,99.99
2017-07-29T03:22:51.219Z,99.99
2017-07-29T03:23:51.211Z,99.99
2017-07-29T03:24:51.201Z,99.99
2017-07-29T03:25:51.194Z,99.99
2017-07-29T03:26:51.197Z,99.99
2017-07-29T03:27:51.199Z,99.99
2017-07-29T03:28:51.192Z,99.99
2017-07-29T03:29:51.189Z,99.99
2017-07-29T03:30:51.194Z,99.99
2017-07-29T03:31:51.169Z,99.99
2017-07-29T03:32:51.177Z,99.99
2017-07-29T03:33:51.167Z,99.99
2017-07-29T03:34:51.170Z,99.99
2017-07-29T03:35:51.169Z,99.99
2017-07-29T03:36:51.169Z,99.99
2017-07-29T03:37:51.160Z,99.99
2017-07-29T03:38:51.163Z,99.99
2017-07-29T03:39:51.149Z,99.99
2017-07-29T03:40:51.153Z,99.99
2017-07-29T03:41:51.135Z,99.99
2017-07-29T03:42:51.394Z,99.99
2017-07-29T03:43:51.139Z,99.99
2017-07-29T03:44:51.120Z,99.99
2017-07-29T03:45:51.127Z,99.99
2017-07-29T03:46:51.126Z,99.99
2017-07-29T03:47:51.120Z,99.99
2017-07-29T03:48:51.109Z,99.99
2017-07-29T03:49:51.113Z,99.99
2017-07-29T03:50:51.107Z,99.99
2017-07-29T03:51:51.103Z,99.99
2017-07-29T03:52:51.100Z,99.99
2017-07-29T03:53:51.088Z,99.99
2017-07-29T03:54:51.097Z,99.99
2017-07-29T03:55:51.078Z,99.99
2017-07-29T03:56:51.085Z,99.99
2017-07-29T03:57:51.087Z,99.99
2017-07-29T03:58:51.081Z,99.99
2017-07-29T03:59:50.769Z,99.99
2017-07-29T04:00:51.061Z,99.99
2017-07-29T04:01:51.070Z,99.99
2017-07-29T04:02:51.049Z,99.99
2017-07-29T04:03:51.060Z,99.99
2017-07-29T04:04:51.058Z,99.99
2017-07-29T04:05:51.050Z,99.99
2017-07-29T04:06:51.048Z,99.99
2017-07-29T04:07:51.049Z,99.99
2017-07-29T04:08:51.196Z,99.99
2017-07-29T04:09:51.041Z,99.99
2017-07-29T04:10:51.036Z,99.99
2017-07-29T04:11:51.022Z,99.99
2017-07-29T04:12:51.025Z,99.99
2017-07-29T04:13:51.015Z,99.99
2017-07-29T04:14:51.022Z,99.99
2017-07-29T04:15:51.017Z,99.99
2017-07-29T04:16:51.017Z,99.99
2017-07-29T04:17:51.011Z,99.99
2017-07-29T04:18:51.014Z,99.99
2017-07-29T04:19:50.688Z,99.99
2017-07-29T04:20:51.002Z,99.99
2017-07-29T04:21:50.679Z,99.99
2017-07-29T04:22:50.992Z,99.99
2017-07-29T04:23:50.989Z,99.99
2017-07-29T04:24:50.993Z,99.99
2017-07-29T04:25:50.983Z,99.99
2017-07-29T04:26:50.990Z,99.99
2017-07-29T04:27:50.977Z,99.99
2017-07-29T04:28:50.967Z,99.99
2017-07-29T04:29:50.974Z,99.99
2017-07-29T04:30:50.974Z,99.99
2017-07-29T04:31:50.968Z,99.99
2017-07-29T04:32:50.954Z,99.99
2017-07-29T04:33:50.962Z,99.99
2017-07-29T04:34:50.942Z,99.99
2017-07-29T04:35:50.953Z,99.99
2017-07-29T04:36:50.947Z,99.99
2017-07-29T04:37:50.949Z,99.99
2017-07-29T04:38:50.939Z,99.99
2017-07-29T04:39:50.941Z,99.99
2017-07-29T04:40:50.949Z,99.99
2017-07-29T04:41:50.943Z,99.99
2017-07-29T04:42:50.924Z,99.99
2017-07-29T04:43:50.937Z,99.99
2017-07-29T04:44:50.922Z,99.99
2017-07-29T04:45:50.923Z,99.99
2017-07-29T04:46:50.930Z,99.99
2017-07-29T04:47:50.920Z,99.99
2017-07-29T04:48:50.608Z,99.99
2017-07-29T04:49:50.604Z,99.99
2017-07-29T04:50:50.908Z,99.99
2017-07-29T04:51:50.913Z,99.99
2017-07-29T04:52:50.899Z,99.99
2017-07-29T04:53:50.908Z,99.99
2017-07-29T04:54:50.904Z,99.99
2017-07-29T04:55:50.901Z,99.99
2017-07-29T04:56:50.889Z,99.99
2017-07-29T04:57:50.900Z,99.99
2017-07-29T04:58:50.895Z,99.99
2017-07-29T04:59:50.895Z,99.99
2017-07-29T05:00:51.184Z,99.99
2017-07-29T05:01:50.890Z,99.99
2017-07-29T05:02:50.878Z,99.99
2017-07-29T05:03:50.870Z,99.99
2017-07-29T05:04:50.879Z,99.99
2017-07-29T05:05:50.878Z,99.99
2017-07-29T05:06:50.876Z,99.99
2017-07-29T05:07:50.876Z,99.99
2017-07-29T05:08:50.866Z,99.99
2017-07-29T05:09:50.868Z,99.99
2017-07-29T05:10:50.866Z,99.99
2017-07-29T05:11:50.864Z,99.99
2017-07-29T05:12:50.859Z,99.99
2017-07-29T05:13:50.884Z,99.99
2017-07-29T05:14:50.845Z,99.99
2017-07-29T05:15:50.860Z,99.99
2017-07-29T05:16:50.850Z,99.99
2017-07-29T05:17:50.850Z,99.99
2017-07-29T05:18:50.853Z,99.99
2017-07-29T05:19:50.839Z,99.99
2017-07-29T05:20:50.848Z,99.99
2017-07-29T05:21:50.853Z,99.99
2017-07-29T05:22:50.850Z,99.99
2017-07-29T05:23:50.833Z,99.99
2017-07-29T05:24:50.838Z,99.99
2017-07-29T05:25:50.829Z,99.99
2017-07-29T05:26:50.845Z,99.99
2017-07-29T05:27:50.826Z,99.99
2017-07-29T05:28:50.838Z,99.99
2017-07-29T05:29:50.847Z,99.99
2017-07-29T05:30:50.834Z,99.99
2017-07-29T05:31:50.820Z,99.99
2017-07-29T05:32:50.523Z,99.99
2017-07-29T05:33:50.826Z,99.99
2017-07-29T05:34:50.835Z,99.99
2017-07-29T05:35:50.817Z,99.99
2017-07-29T05:36:50.513Z,99.99
2017-07-29T05:37:50.824Z,99.99
2017-07-29T05:38:50.818Z,99.99
2017-07-29T05:39:50.817Z,99.99
2017-07-29T05:40:50.818Z,99.99
2017-07-29T05:41:50.814Z,99.99
2017-07-29T05:42:50.816Z,99.99
2017-07-29T05:43:50.803Z,99.99
2017-07-29T05:44:50.807Z,99.99
2017-07-29T05:45:50.809Z,99.99
2017-07-29T05:46:50.807Z,99.99
2017-07-29T05:47:50.806Z,99.99
2017-07-29T05:48:50.802Z,99.99
2017-07-29T05:49:50.809Z,99.99
2017-07-29T05:50:50.798Z,99.99
2017-07-29T05:51:50.485Z,99.99
2017-07-29T05:52:50.800Z,99.99
2017-07-29T05:53:50.801Z,99.99
2017-07-29T05:54:50.797Z,99.99
2017-07-29T05:55:50.793Z,99.99
2017-07-29T05:56:50.797Z,99.99
2017-07-29T05:57:50.796Z,99.99
2017-07-29T05:58:50.486Z,99.99
2017-07-29T05:59:50.791Z,99.99
2017-07-29T06:00:50.792Z,99.99
2017-07-29T06:01:50.791Z,99.99
2017-07-29T06:02:50.783Z,99.99
2017-07-29T06:03:50.789Z,99.99
2017-07-29T06:04:50.787Z,99.99
2017-07-29T06:05:50.790Z,99.99
2017-07-29T06:06:50.780Z,99.99
2017-07-29T06:07:50.799Z,99.99
2017-07-29T06:08:50.804Z,99.99
2017-07-29T06:09:50.795Z,99.99
2017-07-29T06:10:50.485Z,99.99
2017-07-29T06:11:50.479Z,99.99
2017-07-29T06:12:50.794Z,99.99
2017-07-29T06:13:50.801Z,99.99
2017-07-29T06:14:50.810Z,99.99
2017-07-29T06:15:50.801Z,99.99
2017-07-29T06:16:50.813Z,99.99
2017-07-29T06:17:50.807Z,99.99
2017-07-29T06:18:50.816Z,99.99
2017-07-29T06:19:50.796Z,99.99
2017-07-29T06:20:50.806Z,99.99
2017-07-29T06:21:50.814Z,99.99
2017-07-29T06:22:50.820Z,99.99
2017-07-29T06:23:50.810Z,99.99
2017-07-29T06:24:50.805Z,99.99
2017-07-29T06:25:50.816Z,99.99
2017-07-29T06:26:50.816Z,99.99
2017-07-29T06:27:50.819Z,99.99
2017-07-29T06:28:50.824Z,99.99
2017-07-29T06:29:50.818Z,99.99
2017-07-29T06:30:50.829Z,99.99
2017-07-29T06:31:50.825Z,99.99
2017-07-29T06:32:50.823Z,99.99
2017-07-29T06:33:50.813Z,99.99
2017-07-29T06:34:50.828Z,99.99
2017-07-29T06:35:50.828Z,99.99
2017-07-29T06:36:50.825Z,99.99
2017-07-29T06:37:50.830Z,99.99
2017-07-29T06:38:50.836Z,99.99
2017-07-29T06:39:50.833Z,99.99
2017-07-29T06:40:50.839Z,99.99
2017-07-29T06:41:50.835Z,99.99
2017-07-29T06:42:50.525Z,99.99
2017-07-29T06:43:50.840Z,99.99
2017-07-29T06:44:50.834Z,99.99
2017-07-29T06:45:50.835Z,99.99
2017-07-29T06:46:50.521Z,99.99
2017-07-29T06:47:50.835Z,99.99
2017-07-29T06:48:50.835Z,99.99
2017-07-29T06:49:50.837Z,99.99
2017-07-29T06:50:50.834Z,99.99
2017-07-29T06:51:50.840Z,99.99
2017-07-29T06:52:50.831Z,99.99
2017-07-29T06:53:50.836Z,99.99
2017-07-29T06:54:51.153Z,99.99
2017-07-29T06:55:50.838Z,99.99
2017-07-29T06:56:50.833Z,99.99
2017-07-29T06:57:50.829Z,99.99
2017-07-29T06:58:50.844Z,99.99
2017-07-29T06:59:50.850Z,99.99
2017-07-29T07:00:50.833Z,99.99
2017-07-29T07:01:50.535Z,99.99
2017-07-29T07:02:50.839Z,99.99
2017-07-29T07:03:50.849Z,99.99
2017-07-29T07:04:50.846Z,99.99
2017-07-29T07:05:50.851Z,99.84
2017-07-29T07:06:50.836Z,99.11
2017-07-29T07:07:50.882Z,98.83
2017-07-29T07:08:50.847Z,98.63
2017-07-29T07:09:50.855Z,99.99
2017-07-29T07:10:50.855Z,99.99
2017-07-29T07:11:50.857Z,99.99
2017-07-29T07:12:50.552Z,99.99
2017-07-29T07:13:50.868Z,99.99
2017-07-29T07:14:50.863Z,99.99
2017-07-29T07:15:50.869Z,99.99
2017-07-29T07:16:50.873Z,99.99
2017-07-29T07:17:50.875Z,99.99
2017-07-29T07:18:50.878Z,99.99
2017-07-29T07:19:50.879Z,99.99
2017-07-29T07:20:50.876Z,99.99
2017-07-29T07:21:50.889Z,99.99
2017-07-29T07:22:50.885Z,99.99
2017-07-29T07:23:50.890Z,99.94
2017-07-29T07:24:50.891Z,99.99
2017-07-29T07:25:50.891Z,99.99
2017-07-29T07:26:50.897Z,99.99
2017-07-29T07:27:50.900Z,99.99
2017-07-29T07:28:50.901Z,99.99
2017-07-29T07:29:50.903Z,99.99
2017-07-29T07:30:50.904Z,99.99
2017-07-29T07:31:50.907Z,99.99
2017-07-29T07:32:50.899Z,99.99
2017-07-29T07:33:50.916Z,99.99
2017-07-29T07:34:50.902Z,99.99
2017-07-29T07:35:50.917Z,99.99
2017-07-29T07:36:50.917Z,99.99
2017-07-29T07:37:50.928Z,99.99
2017-07-29T07:38:50.922Z,99.99
2017-07-29T07:39:50.921Z,99.99
2017-07-29T07:40:50.923Z,99.99
2017-07-29T07:41:50.927Z,99.99
2017-07-29T07:42:50.924Z,99.99
2017-07-29T07:43:50.933Z,99.99
2017-07-29T07:44:50.943Z,99.99
2017-07-29T07:45:50.929Z,99.99
2017-07-29T07:46:50.942Z,99.99
2017-07-29T07:47:50.947Z,99.99
2017-07-29T07:48:50.934Z,99.99
2017-07-29T07:49:50.941Z,99.99
2017-07-29T07:50:50.932Z,99.99
2017-07-29T07:51:50.956Z,99.99
2017-07-29T07:52:50.950Z,99.99
2017-07-29T07:53:50.953Z,99.51
2017-07-29T07:54:50.637Z,99.99
2017-07-29T07:55:50.959Z,99.99
2017-07-29T07:56:50.961Z,99.99
2017-07-29T07:57:50.960Z,99.99
2017-07-29T07:58:50.959Z,99.99
2017-07-29T07:59:50.964Z,99.99
2017-07-29T08:00:50.961Z,99.99
2017-07-29T08:01:50.971Z,99.99
2017-07-29T08:02:50.971Z,99.99
2017-07-29T08:03:50.966Z,99.99
2017-07-29T08:04:50.963Z,99.94
2017-07-29T08:05:50.663Z,99.84
2017-07-29T08:06:50.975Z,98.3
2017-07-29T08:07:50.959Z,98.88
2017-07-29T08:08:50.670Z,99.99
2017-07-29T08:09:50.980Z,99.99
2017-07-29T08:10:50.972Z,99.99
2017-07-29T08:11:50.982Z,99.99
2017-07-29T08:12:50.985Z,99.99
2017-07-29T08:13:50.993Z,99.99
2017-07-29T08:14:50.988Z,99.99
2017-07-29T08:15:50.981Z,98.3
2017-07-29T08:16:51.001Z,98.88
2017-07-29T08:17:51.000Z,99.99
2017-07-29T08:18:51.005Z,99.99
2017-07-29T08:19:50.993Z,99.99
2017-07-29T08:20:51.001Z,99.99
2017-07-29T08:21:51.004Z,98
2017-07-29T08:22:51.014Z,99.99
2017-07-29T08:23:51.012Z,99.12
2017-07-29T08:24:51.026Z,99.99
2017-07-29T08:25:51.010Z,96.4
2017-07-29T08:26:51.039Z,97.86
2017-07-29T08:27:51.035Z,99.37
2017-07-29T08:28:51.044Z,98.44
2017-07-29T08:29:51.038Z,96.06
2017-07-29T08:30:50.752Z,98.39
2017-07-29T08:31:51.065Z,96.98
2017-07-29T08:32:51.065Z,93.33
2017-07-29T08:33:51.068Z,96.69
2017-07-29T08:34:51.100Z,98.73
2017-07-29T08:35:51.085Z,93.03
2017-07-29T08:36:51.105Z,93.47
2017-07-29T08:37:51.116Z,94.15
2017-07-29T08:38:51.127Z,88.44
2017-07-29T08:39:51.130Z,90.78
2017-07-29T08:40:51.151Z,93.02
2017-07-29T08:41:51.149Z,92.24
2017-07-29T08:42:51.179Z,87.7
2017-07-29T08:43:51.178Z,86.34
2017-07-29T08:44:51.188Z,87.51
2017-07-29T08:45:51.210Z,83.8
2017-07-29T08:46:51.212Z,90.05
2017-07-29T08:47:51.239Z,83.9
2017-07-29T08:48:51.230Z,89.46
2017-07-29T08:49:51.239Z,84
2017-07-29T08:50:51.263Z,83.7
2017-07-29T08:51:51.283Z,83.76
2017-07-29T08:52:50.980Z,86.49
2017-07-29T08:53:51.300Z,86.74
2017-07-29T08:54:51.313Z,72.71
2017-07-29T08:55:51.322Z,87.29
2017-07-29T08:56:51.334Z,90.2
2017-07-29T08:57:51.041Z,88.12
2017-07-29T08:58:51.044Z,85.1
2017-07-29T08:59:51.375Z,83.83
2017-07-29T09:00:51.373Z,87.88
2017-07-29T09:01:51.389Z,90.95
2017-07-29T09:02:51.396Z,92.99
2017-07-29T09:03:51.407Z,89.39
2017-07-29T09:04:51.408Z,89.06
2017-07-29T09:05:51.431Z,87.79
2017-07-29T09:06:51.425Z,87.36
2017-07-29T09:07:51.455Z,91.05
2017-07-29T09:08:51.450Z,93
2017-07-29T09:09:51.467Z,92.61
2017-07-29T09:10:51.465Z,92.85
2017-07-29T09:11:51.481Z,94.31
2017-07-29T09:12:51.487Z,95.57
2017-07-29T09:13:51.494Z,93.73
2017-07-29T09:14:51.495Z,95.67
2017-07-29T09:15:51.501Z,95.43
2017-07-29T09:16:51.514Z,96.59
2017-07-29T09:17:51.513Z,93.29
2017-07-29T09:18:51.520Z,92.03
2017-07-29T09:19:51.523Z,85.72
2017-07-29T09:20:51.532Z,87.23
2017-07-29T09:21:51.536Z,92.08
2017-07-29T09:22:51.542Z,89.76
2017-07-29T09:23:51.537Z,88.59
2017-07-29T09:24:51.559Z,82.87
2017-07-29T09:25:51.561Z,86.41
2017-07-29T09:26:51.565Z,90.39
2017-07-29T09:27:51.576Z,93.98
2017-07-29T09:28:51.567Z,94.76
2017-07-29T09:29:51.576Z,90.1
2017-07-29T09:30:51.574Z,91.71
2017-07-29T09:31:51.599Z,91.22
2017-07-29T09:32:51.595Z,92.96
2017-07-29T09:33:51.594Z,95.68
2017-07-29T09:34:51.604Z,93.2
2017-07-29T09:35:51.603Z,92.04
2017-07-29T09:36:51.607Z,80.88
2017-07-29T09:37:51.619Z,85.44
2017-07-29T09:38:51.624Z,80.6
2017-07-29T09:39:51.626Z,92.33
2017-07-29T09:40:51.617Z,77.78
2017-07-29T09:41:51.620Z,86.36
2017-07-29T09:42:51.323Z,89.07
2017-07-29T09:43:51.630Z,89.8
2017-07-29T09:44:51.648Z,83.39
2017-07-29T09:45:51.637Z,87.41
2017-07-29T09:46:51.657Z,86.15
2017-07-29T09:47:51.656Z,77.7
2017-07-29T09:48:51.652Z,75.6
2017-07-29T09:49:51.653Z,89.11
2017-07-29T09:50:51.671Z,87.36
2017-07-29T09:51:51.675Z,87.4
2017-07-29T09:52:51.678Z,88.23
2017-07-29T09:53:51.692Z,89.88
2017-07-29T09:54:51.697Z,85.79
2017-07-29T09:55:51.693Z,87.68
2017-07-29T09:56:51.702Z,78.25
2017-07-29T09:57:51.709Z,87.29
2017-07-29T09:58:51.719Z,87.34
2017-07-29T09:59:51.716Z,76.34
2017-07-29T10:00:51.726Z,81.88
2017-07-29T10:01:51.728Z,85.14
2017-07-29T10:02:51.750Z,86.8
2017-07-29T10:03:51.428Z,83.14
2017-07-29T10:04:51.746Z,84.4
2017-07-29T10:05:51.744Z,77.62
2017-07-29T10:06:51.770Z,70.6
2017-07-29T10:07:51.776Z,78.69
2017-07-29T10:08:51.780Z,65.72
2017-07-29T10:09:51.784Z,76.64
2017-07-29T10:10:51.785Z,78.89
2017-07-29T10:11:51.810Z,75.96
2017-07-29T10:12:51.805Z,74.79
2017-07-29T10:13:51.811Z,78.69
2017-07-29T10:14:51.804Z,69.43
2017-07-29T10:15:51.822Z,65.82
2017-07-29T10:16:51.833Z,78.79
2017-07-29T10:17:51.836Z,76.64
2017-07-29T10:18:51.849Z,74.21
2017-07-29T10:19:51.846Z,70.11
2017-07-29T10:20:51.858Z,76.31
2017-07-29T10:21:51.877Z,71.08
2017-07-29T10:22:51.563Z,73.03
2017-07-29T10:23:51.567Z,74.27
2017-07-29T10:24:51.570Z,75.14
2017-07-29T10:25:51.589Z,73.78
2017-07-29T10:26:51.581Z,78.16
2017-07-29T10:27:51.908Z,72.16
2017-07-29T10:28:51.908Z,62.12
2017-07-29T10:29:51.608Z,67.25
2017-07-29T10:30:51.613Z,71.83
2017-07-29T10:31:51.628Z,69.39
2017-07-29T10:32:51.627Z,65.92
2017-07-29T10:33:51.946Z,68.32
2017-07-29T10:34:51.644Z,68.42
2017-07-29T10:35:51.646Z,70.37
2017-07-29T10:36:51.656Z,69.2
2017-07-29T10:37:51.975Z,64.81
2017-07-29T10:38:51.657Z,69.49
2017-07-29T10:39:51.672Z,69.49
2017-07-29T10:40:51.685Z,69.59
2017-07-29T10:41:52.001Z,71.25
2017-07-29T10:42:51.994Z,69.88
2017-07-29T10:43:51.707Z,72.12
2017-07-29T10:44:51.708Z,57.6
2017-07-29T10:45:52.034Z,65.4
2017-07-29T10:46:52.016Z,65.11
2017-07-29T10:47:52.044Z,68.03
2017-07-29T10:48:52.030Z,68.42
2017-07-29T10:49:52.061Z,60.82
2017-07-29T10:50:52.055Z,59.84
2017-07-29T10:51:52.069Z,58.77
2017-07-29T10:52:52.076Z,63.06
2017-07-29T10:53:52.077Z,65.01
2017-07-29T10:54:52.071Z,55.36
2017-07-29T10:55:52.098Z,53.8
2017-07-29T10:56:52.087Z,56.72
2017-07-29T10:57:52.100Z,50.75
2017-07-29T10:58:52.107Z,57.09
2017-07-29T10:59:52.118Z,61.83
2017-07-29T11:00:52.125Z,62.32
2017-07-29T11:01:52.131Z,63.87
2017-07-29T11:02:52.124Z,55.5
2017-07-29T11:03:52.142Z,56.67
2017-07-29T11:04:52.145Z,58.22
2017-07-29T11:05:52.158Z,56.74
2017-07-29T11:06:52.155Z,57.42
2017-07-29T11:07:52.159Z,57.42
2017-07-29T11:08:52.158Z,59.27
2017-07-29T11:09:52.173Z,58.2
2017-07-29T11:10:52.188Z,56.64
2017-07-29T11:11:52.186Z,56.64
2017-07-29T11:12:51.875Z,57.59
2017-07-29T11:13:52.181Z,57.42
2017-07-29T11:14:52.186Z,55.27
2017-07-29T11:15:52.202Z,56.15
2017-07-29T11:16:51.902Z,55.57
2017-07-29T11:17:52.224Z,54.4
2017-07-29T11:18:52.224Z,54.79
2017-07-29T11:19:52.222Z,54.79
2017-07-29T11:20:52.223Z,52.75
2017-07-29T11:21:52.235Z,51.51
2017-07-29T11:22:52.237Z,50.73
2017-07-29T11:23:52.249Z,49.15
2017-07-29T11:24:52.252Z,51.39
2017-07-29T11:25:52.265Z,51.12
2017-07-29T11:26:52.252Z,51.51
2017-07-29T11:27:52.274Z,51.51
2017-07-29T11:28:52.285Z,50.36
2017-07-29T11:29:52.277Z,49.88
2017-07-29T11:30:52.285Z,50.75
2017-07-29T11:31:52.277Z,49.29
2017-07-29T11:32:52.301Z,50.16
2017-07-29T11:33:52.298Z,50.48
2017-07-29T11:34:52.309Z,50.09
2017-07-29T11:35:52.314Z,49.32
2017-07-29T11:36:52.307Z,49.41
2017-07-29T11:37:52.322Z,49.24
2017-07-29T11:38:52.327Z,47.68
2017-07-29T11:39:52.340Z,45.95
2017-07-29T11:40:52.336Z,46.44
2017-07-29T11:41:52.351Z,45.39
2017-07-29T11:42:52.342Z,45
2017-07-29T11:43:52.041Z,44.8
2017-07-29T11:44:52.387Z,45.12
2017-07-29T11:45:52.377Z,44.34
2017-07-29T11:46:52.385Z,44.73
2017-07-29T11:47:52.381Z,45.12
2017-07-29T11:48:52.388Z,44.92
2017-07-29T11:49:52.399Z,42.79
2017-07-29T11:50:52.411Z,43.28
2017-07-29T11:51:52.419Z,43.75
2017-07-29T11:52:52.426Z,44.24
2017-07-29T11:53:52.108Z,44.34
2017-07-29T11:54:52.432Z,42.58
2017-07-29T11:55:52.430Z,42.87
2017-07-29T11:56:52.442Z,43.75
2017-07-29T11:57:52.143Z,44.8
2017-07-29T11:58:52.461Z,45.12
2017-07-29T11:59:52.475Z,44.14
2017-07-29T12:00:52.473Z,41.89
2017-07-29T12:01:52.482Z,42.09
2017-07-29T12:02:52.491Z,42.68
2017-07-29T12:03:52.495Z,42.09
2017-07-29T12:04:52.505Z,41.7
2017-07-29T12:05:52.502Z,42.48
2017-07-29T12:06:52.216Z,42.68
2017-07-29T12:07:52.538Z,43.75
2017-07-29T12:08:52.527Z,43.26
2017-07-29T12:09:52.532Z,42.48
2017-07-29T12:10:52.544Z,41.42
2017-07-29T12:11:52.543Z,41.52
2017-07-29T12:12:52.560Z,42.4
2017-07-29T12:13:52.569Z,42.6
2017-07-29T12:14:52.568Z,41.91
2017-07-29T12:15:52.581Z,41.91
2017-07-29T12:16:52.590Z,42.11
2017-07-29T12:17:52.599Z,42.3
2017-07-29T12:18:52.597Z,41.72
2017-07-29T12:19:52.617Z,42.79
2017-07-29T12:20:52.623Z,42.11
2017-07-29T12:21:52.626Z,42.48
2017-07-29T12:22:52.627Z,42.77
2017-07-29T12:23:52.651Z,42.68
2017-07-29T12:24:52.642Z,43.24
2017-07-29T12:25:52.656Z,42.46
2017-07-29T12:26:52.667Z,43.41
2017-07-29T12:27:52.671Z,43.8
2017-07-29T12:28:52.681Z,44.48
2017-07-29T12:29:52.669Z,44.38
2017-07-29T12:30:52.692Z,44.78
2017-07-29T12:31:52.701Z,44.09
2017-07-29T12:32:52.703Z,44.7
2017-07-29T12:33:52.710Z,44.58
2017-07-29T12:34:52.715Z,44.6
2017-07-29T12:35:52.721Z,45.09
2017-07-29T12:36:52.731Z,45.19
2017-07-29T12:37:52.736Z,44.7
2017-07-29T12:38:52.747Z,44.41
2017-07-29T12:39:52.754Z,44.6
2017-07-29T12:40:52.771Z,44.51
2017-07-29T12:41:52.763Z,44.6
2017-07-29T12:42:52.878Z,43.92
2017-07-29T12:43:52.769Z,44.12
2017-07-29T12:44:52.779Z,43.92
2017-07-29T12:45:52.793Z,43.63
2017-07-29T12:46:52.803Z,43.99
2017-07-29T12:47:53.110Z,44.51
2017-07-29T12:48:52.496Z,44.7
2017-07-29T12:49:52.817Z,44.41
2017-07-29T12:50:52.830Z,45
2017-07-29T12:51:52.829Z,44.78
2017-07-29T12:52:52.834Z,45.36
2017-07-29T12:53:52.844Z,44.78
2017-07-29T12:54:52.850Z,44.97